createdAt,value
2019-05-25T00:02:18.732Z,83.67
2019-05-25T00:04:49.283Z,82.92
2019-05-25T00:07:19.962Z,83.51
2019-05-25T00:09:50.430Z,83.66
2019-05-25T00:12:21.111Z,84.08
2019-05-25T00:14:51.603Z,83.90
2019-05-25T00:17:22.015Z,83.69
2019-05-25T00:19:52.413Z,84.00
2019-05-25T00:22:22.908Z,83.37
2019-05-25T00:24:53.593Z,83.51
2019-05-25T00:27:24.061Z,83.21
2019-05-25T00:29:54.505Z,83.68
2019-05-25T00:32:25.188Z,83.56
2019-05-25T00:34:55.725Z,83.66
2019-05-25T00:37:26.241Z,83.49
2019-05-25T00:39:56.790Z,83.57
2019-05-25T00:42:27.300Z,82.92
2019-05-25T00:44:57.740Z,82.47
2019-05-25T00:47:28.371Z,82.43
2019-05-25T00:49:58.845Z,82.13
2019-05-25T00:52:29.319Z,81.78
2019-05-25T00:54:59.796Z,81.55
2019-05-25T00:57:30.545Z,81.44
2019-05-25T01:00:01.030Z,81.13
2019-05-25T01:02:31.632Z,81.26
2019-05-25T01:05:02.181Z,81.40
2019-05-25T01:07:32.645Z,81.04
2019-05-25T01:10:03.208Z,81.34
2019-05-25T01:12:33.646Z,81.34
2019-05-25T01:15:05.804Z,81.26
2019-05-25T01:17:36.272Z,81.34
2019-05-25T01:20:08.190Z,81.35
2019-05-25T01:22:38.633Z,81.87
2019-05-25T01:25:10.778Z,81.41
2019-05-25T01:27:41.189Z,81.42
2019-05-25T01:30:12.719Z,81.20
2019-05-25T01:32:43.166Z,80.67
2019-05-25T01:35:13.999Z,81.65
2019-05-25T01:37:48.228Z,82.44
2019-05-25T01:40:17.090Z,82.83
2019-05-25T01:42:47.540Z,83.10
2019-05-25T01:45:18.368Z,82.71
2019-05-25T01:47:49.012Z,83.37
2019-05-25T01:50:19.537Z,83.66
2019-05-25T01:52:50.110Z,83.28
2019-05-25T01:55:20.730Z,82.83
2019-05-25T01:57:51.192Z,82.91
2019-05-25T02:00:22.395Z,82.60
2019-05-25T02:02:52.957Z,82.95
2019-05-25T02:05:23.394Z,82.99
2019-05-25T02:07:54.004Z,82.53
2019-05-25T02:10:24.468Z,82.83
2019-05-25T02:12:54.907Z,82.67
2019-05-25T02:15:25.379Z,82.40
2019-05-25T02:17:55.915Z,82.35
2019-05-25T02:20:26.388Z,82.54
2019-05-25T02:22:56.889Z,83.48
2019-05-25T02:25:27.418Z,83.56
2019-05-25T02:27:57.922Z,83.26
2019-05-25T02:30:29.048Z,83.31
2019-05-25T02:33:00.535Z,83.11
2019-05-25T02:35:31.938Z,83.00
2019-05-25T02:38:02.396Z,83.22
2019-05-25T02:40:33.086Z,83.69
2019-05-25T02:43:03.529Z,83.75
2019-05-25T02:45:34.016Z,84.06
2019-05-25T02:48:04.640Z,84.18
2019-05-25T02:50:35.063Z,84.54
2019-05-25T02:53:05.778Z,84.29
2019-05-25T02:55:36.225Z,84.02
2019-05-25T02:58:07.039Z,84.40
2019-05-25T03:00:37.896Z,84.79
2019-05-25T03:03:08.492Z,85.51
2019-05-25T03:05:39.086Z,85.86
2019-05-25T03:08:09.577Z,85.43
2019-05-25T03:10:41.106Z,85.85
2019-05-25T03:13:11.930Z,85.75
2019-05-25T03:15:42.380Z,85.88
2019-05-25T03:18:12.829Z,85.49
2019-05-25T03:20:43.327Z,85.73
2019-05-25T03:23:13.834Z,86.11
2019-05-25T03:25:49.478Z,86.17
2019-05-25T03:28:17.281Z,86.46
2019-05-25T03:30:47.770Z,86.50
2019-05-25T03:33:18.218Z,86.53
2019-05-25T03:35:48.663Z,86.33
2019-05-25T03:38:19.194Z,86.17
2019-05-25T03:40:49.817Z,85.95
2019-05-25T03:43:20.345Z,85.67
2019-05-25T03:45:51.322Z,85.59
2019-05-25T03:48:21.803Z,85.75
2019-05-25T03:50:52.373Z,86.06
2019-05-25T03:53:22.912Z,86.19
2019-05-25T03:56:05.277Z,86.11
2019-05-25T03:58:25.566Z,86.15
2019-05-25T04:00:56.073Z,85.99
2019-05-25T04:03:26.605Z,85.69
2019-05-25T04:05:57.046Z,85.80
2019-05-25T04:08:27.553Z,85.56
2019-05-25T04:10:58.079Z,85.17
2019-05-25T04:13:28.489Z,85.41
2019-05-25T04:16:01.625Z,85.40
2019-05-25T04:18:32.604Z,85.43
2019-05-25T04:21:03.079Z,85.67
2019-05-25T04:23:33.808Z,85.84
2019-05-25T04:26:04.325Z,86.18
2019-05-25T04:28:34.798Z,86.40
2019-05-25T04:31:05.607Z,86.28
2019-05-25T04:33:36.316Z,86.38
2019-05-25T04:36:06.744Z,86.08
2019-05-25T04:38:37.669Z,86.15
2019-05-25T04:41:08.089Z,86.39
2019-05-25T04:43:38.684Z,86.30
2019-05-25T04:46:09.124Z,86.23
2019-05-25T04:48:39.611Z,85.82
2019-05-25T04:51:10.618Z,86.20
2019-05-25T04:53:41.122Z,85.90
2019-05-25T04:56:11.585Z,85.98
2019-05-25T04:58:42.223Z,85.81
2019-05-25T05:01:12.672Z,85.42
2019-05-25T05:03:43.112Z,85.31
2019-05-25T05:06:13.547Z,85.01
2019-05-25T05:08:44.030Z,85.08
2019-05-25T05:11:14.866Z,85.11
2019-05-25T05:13:45.258Z,84.79
2019-05-25T05:16:15.709Z,84.78
2019-05-25T05:18:46.168Z,84.48
2019-05-25T05:21:16.657Z,84.30
2019-05-25T05:23:47.128Z,84.69
2019-05-25T05:26:17.677Z,84.55
2019-05-25T05:28:49.257Z,84.39
2019-05-25T05:31:23.443Z,84.69
2019-05-25T05:33:52.180Z,85.02
2019-05-25T05:36:24.824Z,85.30
2019-05-25T05:38:57.794Z,85.45
2019-05-25T05:41:31.795Z,85.34
2019-05-25T05:44:04.729Z,85.11
2019-05-25T05:46:37.080Z,85.26
2019-05-25T05:49:11.148Z,84.95
2019-05-25T05:51:45.123Z,84.66
2019-05-25T05:54:19.576Z,84.02
2019-05-25T05:56:50.480Z,83.82
2019-05-25T05:59:21.019Z,83.28
2019-05-25T06:01:51.537Z,82.95
2019-05-25T06:04:21.975Z,82.63
2019-05-25T06:06:52.418Z,82.28
2019-05-25T06:09:23.046Z,82.19
2019-05-25T06:11:53.492Z,81.87
2019-05-25T06:14:24.219Z,81.78
2019-05-25T06:16:54.833Z,81.86
2019-05-25T06:19:25.278Z,81.66
2019-05-25T06:21:55.744Z,81.28
2019-05-25T06:24:26.213Z,81.33
2019-05-25T06:26:56.781Z,81.64
2019-05-25T06:29:27.432Z,81.68
2019-05-25T06:31:58.060Z,81.30
2019-05-25T06:34:28.545Z,81.56
2019-05-25T06:36:59.001Z,81.60
2019-05-25T06:39:29.480Z,81.41
2019-05-25T06:41:59.966Z,81.75
2019-05-25T06:44:30.562Z,81.40
2019-05-25T06:47:00.967Z,81.26
2019-05-25T06:49:31.472Z,81.60
2019-05-25T06:52:01.890Z,81.05
2019-05-25T06:54:32.519Z,81.80
2019-05-25T06:57:03.044Z,81.15
2019-05-25T06:59:33.664Z,80.98
2019-05-25T07:02:04.340Z,81.42
2019-05-25T07:04:34.762Z,81.31
2019-05-25T07:07:05.225Z,81.57
2019-05-25T07:09:35.681Z,82.70
2019-05-25T07:12:06.146Z,83.54
2019-05-25T07:14:36.601Z,84.78
2019-05-25T07:17:07.053Z,85.65
2019-05-25T07:19:37.686Z,86.01
2019-05-25T07:22:08.235Z,86.24
2019-05-25T07:24:38.703Z,86.40
2019-05-25T07:27:09.183Z,86.70
2019-05-25T07:29:39.594Z,86.72
2019-05-25T07:32:32.495Z,86.23
2019-05-25T07:35:03.145Z,86.17
2019-05-25T07:37:33.681Z,86.82
2019-05-25T07:40:04.678Z,86.40
2019-05-25T07:42:35.159Z,86.62
2019-05-25T07:45:06.295Z,85.96
2019-05-25T07:47:36.849Z,85.56
2019-05-25T07:50:08.548Z,85.34
2019-05-25T07:52:39.027Z,85.75
2019-05-25T07:55:10.231Z,86.63
2019-05-25T07:57:41.762Z,86.39
2019-05-25T08:00:12.447Z,86.37
2019-05-25T08:02:42.928Z,86.30
2019-05-25T08:05:13.692Z,85.89
2019-05-25T08:07:44.335Z,85.08
2019-05-25T08:10:15.399Z,84.18
2019-05-25T08:12:46.031Z,85.84
2019-05-25T08:15:16.873Z,84.72
2019-05-25T08:17:47.426Z,84.02
2019-05-25T08:20:17.853Z,83.63
2019-05-25T08:22:48.303Z,84.83
2019-05-25T08:25:18.733Z,85.46
2019-05-25T08:27:49.198Z,84.84
2019-05-25T08:30:19.654Z,84.94
2019-05-25T08:32:50.149Z,85.63
2019-05-25T08:35:20.621Z,85.40
2019-05-25T08:37:51.197Z,83.63
2019-05-25T08:40:21.682Z,84.55
2019-05-25T08:42:52.582Z,84.27
2019-05-25T08:45:25.982Z,84.13
2019-05-25T08:47:57.520Z,83.73
2019-05-25T08:50:37.723Z,82.97
2019-05-25T08:53:00.617Z,82.65
2019-05-25T08:55:31.143Z,82.52
2019-05-25T08:58:01.573Z,82.33
2019-05-25T09:00:32.127Z,81.42
2019-05-25T09:03:02.794Z,80.93
2019-05-25T09:05:33.235Z,79.87
2019-05-25T09:08:03.734Z,80.12
2019-05-25T09:10:34.286Z,79.53
2019-05-25T09:13:04.922Z,79.87
2019-05-25T09:15:35.467Z,78.67
2019-05-25T09:18:05.983Z,77.54
2019-05-25T09:20:36.542Z,77.25
2019-05-25T09:23:07.205Z,78.89
2019-05-25T09:25:37.697Z,79.06
2019-05-25T09:28:08.221Z,78.15
2019-05-25T09:30:38.830Z,77.91
2019-05-25T09:33:09.339Z,79.17
2019-05-25T09:35:39.888Z,78.45
2019-05-25T09:38:10.393Z,78.88
2019-05-25T09:40:41.410Z,79.54
2019-05-25T09:43:11.968Z,78.57
2019-05-25T09:45:43.020Z,78.32
2019-05-25T09:48:13.544Z,78.55
2019-05-25T09:50:44.366Z,80.48
2019-05-25T09:53:14.912Z,80.73
2019-05-25T09:55:45.515Z,79.66
2019-05-25T09:58:16.042Z,79.60
2019-05-25T10:00:46.816Z,78.96
2019-05-25T10:03:17.562Z,78.48
2019-05-25T10:05:48.146Z,79.53
2019-05-25T10:08:18.630Z,78.37
2019-05-25T10:10:49.080Z,78.90
2019-05-25T10:13:19.731Z,78.85
2019-05-25T10:15:50.180Z,78.42
2019-05-25T10:18:20.941Z,78.45
2019-05-25T10:20:51.839Z,78.67
2019-05-25T10:23:22.532Z,77.25
2019-05-25T10:25:53.358Z,77.68
2019-05-25T10:28:24.090Z,76.16
2019-05-25T10:30:55.232Z,75.35
2019-05-25T10:33:25.857Z,73.62
2019-05-25T10:35:56.424Z,72.30
2019-05-25T10:38:26.918Z,69.98
2019-05-25T10:40:58.671Z,70.48
2019-05-25T10:43:29.532Z,70.56
2019-05-25T10:46:00.046Z,69.91
2019-05-25T10:48:30.614Z,70.82
2019-05-25T10:51:01.156Z,71.15
2019-05-25T10:53:31.870Z,71.82
2019-05-25T10:56:02.283Z,71.22
2019-05-25T10:58:32.808Z,72.07
2019-05-25T11:01:03.327Z,71.22
2019-05-25T11:03:33.781Z,71.78
2019-05-25T11:06:05.232Z,72.23
2019-05-25T11:08:35.719Z,71.27
2019-05-25T11:11:06.145Z,71.19
2019-05-25T11:13:37.301Z,69.92
2019-05-25T11:16:07.833Z,70.09
2019-05-25T11:18:38.406Z,69.37
2019-05-25T11:21:08.907Z,70.40
2019-05-25T11:23:39.340Z,70.01
2019-05-25T11:26:09.960Z,69.14
2019-05-25T11:28:40.454Z,68.13
2019-05-25T11:31:11.182Z,69.36
2019-05-25T11:33:42.005Z,69.67
2019-05-25T11:36:12.539Z,70.20
2019-05-25T11:38:43.161Z,70.02
2019-05-25T11:41:13.697Z,69.66
2019-05-25T11:43:44.631Z,68.82
2019-05-25T11:46:15.187Z,68.15
2019-05-25T11:48:45.786Z,68.67
2019-05-25T11:51:16.318Z,69.13
2019-05-25T11:53:47.297Z,68.05
2019-05-25T11:56:18.015Z,65.70
2019-05-25T11:58:48.600Z,66.31
2019-05-25T12:01:19.464Z,67.12
2019-05-25T12:03:50.058Z,67.09
2019-05-25T12:06:20.646Z,67.26
2019-05-25T12:08:51.484Z,67.54
2019-05-25T12:11:21.882Z,67.84
2019-05-25T12:13:52.308Z,68.53
2019-05-25T12:16:22.801Z,70.08
2019-05-25T12:18:53.476Z,70.93
2019-05-25T12:21:24.179Z,71.34
2019-05-25T12:23:54.685Z,71.16
2019-05-25T12:26:25.252Z,71.31
2019-05-25T12:28:56.223Z,71.22
2019-05-25T12:31:26.727Z,70.79
2019-05-25T12:33:57.309Z,71.57
2019-05-25T12:36:27.773Z,70.76
2019-05-25T12:38:58.327Z,69.98
2019-05-25T12:41:28.796Z,70.10
2019-05-25T12:43:59.272Z,68.99
2019-05-25T12:46:29.851Z,69.16
2019-05-25T12:49:00.322Z,69.73
2019-05-25T12:51:30.880Z,69.76
2019-05-25T12:54:01.342Z,70.20
2019-05-25T12:56:31.841Z,69.18
2019-05-25T12:59:02.460Z,68.14
2019-05-25T13:01:33.096Z,68.76
2019-05-25T13:04:04.013Z,67.87
2019-05-25T13:06:35.491Z,67.14
2019-05-25T13:09:08.457Z,67.35
2019-05-25T13:11:38.966Z,67.47
2019-05-25T13:14:14.431Z,65.67
2019-05-25T13:16:41.843Z,65.14
2019-05-25T13:19:12.399Z,65.32
2019-05-25T13:21:43.046Z,65.74
2019-05-25T13:24:13.754Z,65.58
2019-05-25T13:26:44.797Z,65.91
2019-05-25T13:29:15.343Z,66.04
2019-05-25T13:31:45.836Z,65.19
2019-05-25T13:34:16.249Z,65.16
2019-05-25T13:36:46.906Z,65.16
2019-05-25T13:39:17.352Z,62.39
2019-05-25T13:41:47.820Z,61.79
2019-05-25T13:44:18.365Z,60.02
2019-05-25T13:46:49.107Z,53.78
2019-05-25T13:49:19.778Z,56.38
2019-05-25T13:51:50.622Z,56.95
2019-05-25T13:54:21.202Z,53.98
2019-05-25T13:56:51.678Z,52.87
2019-05-25T13:59:22.130Z,52.03
2019-05-25T14:01:52.929Z,51.93
2019-05-25T14:04:23.395Z,51.21
2019-05-25T14:06:53.825Z,49.55
2019-05-25T14:09:24.600Z,53.06
2019-05-25T14:11:55.514Z,55.31
2019-05-25T14:14:26.109Z,55.21
2019-05-25T14:16:56.653Z,55.83
2019-05-25T14:19:27.328Z,57.90
2019-05-25T14:21:57.999Z,57.05
2019-05-25T14:24:28.612Z,56.05
2019-05-25T14:26:59.055Z,56.82
2019-05-25T14:29:29.610Z,59.05
2019-05-25T14:32:00.091Z,60.10
2019-05-25T14:34:30.538Z,59.24
2019-05-25T14:37:01.063Z,56.06
2019-05-25T14:39:31.496Z,56.44
2019-05-25T14:42:02.320Z,57.09
2019-05-25T14:44:32.934Z,56.70
2019-05-25T14:47:03.811Z,56.49
2019-05-25T14:49:34.239Z,55.50
2019-05-25T14:52:04.898Z,54.68
2019-05-25T14:54:35.514Z,53.89
2019-05-25T14:57:06.079Z,54.72
2019-05-25T14:59:36.657Z,55.82
2019-05-25T15:02:09.568Z,58.02
2019-05-25T15:04:40.174Z,58.58
2019-05-25T15:07:10.840Z,57.36
2019-05-25T15:09:41.821Z,57.08
2019-05-25T15:12:12.455Z,56.51
2019-05-25T15:14:43.222Z,56.79
2019-05-25T15:17:13.683Z,56.50
2019-05-25T15:19:44.167Z,57.11
2019-05-25T15:22:14.860Z,57.55
2019-05-25T15:24:45.715Z,58.98
2019-05-25T15:27:16.481Z,59.62
2019-05-25T15:29:47.917Z,60.16
2019-05-25T15:32:20.507Z,60.18
2019-05-25T15:34:50.704Z,58.54
2019-05-25T15:37:21.261Z,58.00
2019-05-25T15:39:52.107Z,56.86
2019-05-25T15:42:22.595Z,56.08
2019-05-25T15:44:53.256Z,57.03
2019-05-25T15:47:23.684Z,56.89
2019-05-25T15:49:54.564Z,56.42
2019-05-25T15:52:25.329Z,56.56
2019-05-25T15:54:55.865Z,56.43
2019-05-25T15:57:26.705Z,56.76
2019-05-25T15:59:57.222Z,55.44
2019-05-25T16:02:36.769Z,55.85
2019-05-25T16:05:00.494Z,56.76
2019-05-25T16:07:32.136Z,57.54
2019-05-25T16:10:02.818Z,58.08
2019-05-25T16:12:33.230Z,57.68
2019-05-25T16:15:03.722Z,58.07
2019-05-25T16:17:34.192Z,57.79
2019-05-25T16:20:05.289Z,57.71
2019-05-25T16:22:35.867Z,57.16
2019-05-25T16:25:07.549Z,58.01
2019-05-25T16:27:38.033Z,58.46
2019-05-25T16:30:08.911Z,57.24
2019-05-25T16:33:10.093Z,56.83
2019-05-25T16:35:11.880Z,57.37
2019-05-25T16:37:43.012Z,58.86
2019-05-25T16:40:14.783Z,59.21
2019-05-25T16:42:45.269Z,59.41
2019-05-25T16:45:16.161Z,58.68
2019-05-25T16:47:46.911Z,58.93
2019-05-25T16:50:19.985Z,59.96
2019-05-25T16:52:50.547Z,59.72
2019-05-25T16:55:21.107Z,59.21
2019-05-25T16:57:51.953Z,58.90
2019-05-25T17:00:41.493Z,59.09
2019-05-25T17:03:26.998Z,58.55
2019-05-25T17:05:44.208Z,59.36
2019-05-25T17:08:14.810Z,60.34
2019-05-25T17:10:45.415Z,61.20
2019-05-25T17:13:15.842Z,61.58
2019-05-25T17:15:46.334Z,61.25
2019-05-25T17:18:16.900Z,61.30
2019-05-25T17:20:47.414Z,61.80
2019-05-25T17:23:17.852Z,62.19
2019-05-25T17:25:48.380Z,61.83
2019-05-25T17:28:18.824Z,62.00
2019-05-25T17:30:49.563Z,62.52
2019-05-25T17:33:20.030Z,61.78
2019-05-25T17:35:50.487Z,62.04
2019-05-25T17:38:20.980Z,62.33
2019-05-25T17:40:51.422Z,63.26
2019-05-25T17:43:21.872Z,62.94
2019-05-25T17:45:52.362Z,62.49
2019-05-25T17:48:22.858Z,62.40
2019-05-25T17:50:53.313Z,62.20
2019-05-25T17:53:23.839Z,62.17
2019-05-25T17:55:54.343Z,62.65
2019-05-25T17:58:24.877Z,62.84
2019-05-25T18:00:55.350Z,62.44
2019-05-25T18:03:25.942Z,62.25
2019-05-25T18:05:56.415Z,61.95
2019-05-25T18:08:26.968Z,61.50
2019-05-25T18:10:57.445Z,61.11
2019-05-25T18:13:29.081Z,61.57
2019-05-25T18:15:59.779Z,61.39
2019-05-25T18:18:30.275Z,61.31
2019-05-25T18:21:00.812Z,61.69
2019-05-25T18:23:31.366Z,61.52
2019-05-25T18:26:01.907Z,61.55
2019-05-25T18:28:32.483Z,62.55
2019-05-25T18:31:03.040Z,61.59
2019-05-25T18:33:33.581Z,61.35
2019-05-25T18:36:04.049Z,61.49
2019-05-25T18:38:34.647Z,62.46
2019-05-25T18:41:05.230Z,62.29
2019-05-25T18:43:35.755Z,62.36
2019-05-25T18:46:06.736Z,63.19
2019-05-25T18:48:37.252Z,62.92
2019-05-25T18:51:07.633Z,63.31
2019-05-25T18:53:38.076Z,61.87
2019-05-25T18:56:08.544Z,62.30
2019-05-25T18:58:39.051Z,62.49
2019-05-25T19:01:09.579Z,62.62
2019-05-25T19:03:40.167Z,62.13
2019-05-25T19:06:10.716Z,62.37
2019-05-25T19:08:41.153Z,63.13
2019-05-25T19:11:11.833Z,63.74
2019-05-25T19:13:42.318Z,63.48
2019-05-25T19:16:12.880Z,63.65
2019-05-25T19:18:43.530Z,64.10
2019-05-25T19:21:14.077Z,64.38
2019-05-25T19:23:44.509Z,65.03
2019-05-25T19:26:14.923Z,66.02
2019-05-25T19:28:45.420Z,66.12
2019-05-25T19:31:15.863Z,67.02
2019-05-25T19:33:46.427Z,67.99
2019-05-25T19:36:16.910Z,69.87
2019-05-25T19:38:47.433Z,70.52
2019-05-25T19:41:17.925Z,71.43
2019-05-25T19:43:48.390Z,72.44
2019-05-25T19:46:18.848Z,73.13
2019-05-25T19:48:49.328Z,73.21
2019-05-25T19:51:19.785Z,73.16
2019-05-25T19:53:50.304Z,74.18
2019-05-25T19:56:20.770Z,74.72
2019-05-25T19:58:51.211Z,75.49
2019-05-25T20:01:21.765Z,76.20
2019-05-25T20:03:52.210Z,76.11
2019-05-25T20:06:22.720Z,76.20
2019-05-25T20:08:53.175Z,76.74
2019-05-25T20:11:23.638Z,76.58
2019-05-25T20:13:54.084Z,77.14
2019-05-25T20:16:25.237Z,77.42
2019-05-25T20:18:55.924Z,77.81
2019-05-25T20:21:26.381Z,77.81
2019-05-25T20:23:56.879Z,78.13
2019-05-25T20:26:27.435Z,78.52
2019-05-25T20:28:57.869Z,78.83
2019-05-25T20:31:28.315Z,79.11
2019-05-25T20:33:58.881Z,79.02
2019-05-25T20:36:29.493Z,78.57
2019-05-25T20:38:59.936Z,79.03
2019-05-25T20:41:30.490Z,79.32
2019-05-25T20:44:01.058Z,79.58
2019-05-25T20:46:31.510Z,79.37
2019-05-25T20:49:02.165Z,79.06
2019-05-25T20:51:32.678Z,79.04
2019-05-25T20:54:03.203Z,79.53
2019-05-25T20:56:33.688Z,79.81
2019-05-25T20:59:04.114Z,79.64
2019-05-25T21:01:34.559Z,79.80
2019-05-25T21:04:05.084Z,80.13
2019-05-25T21:06:35.616Z,80.44
2019-05-25T21:09:07.985Z,80.20
2019-05-25T21:11:38.586Z,80.70
2019-05-25T21:14:09.031Z,81.41
2019-05-25T21:16:39.525Z,80.99
2019-05-25T21:19:09.976Z,81.24
2019-05-25T21:21:40.535Z,81.54
2019-05-25T21:24:11.026Z,81.48
2019-05-25T21:26:41.591Z,81.86
2019-05-25T21:29:12.053Z,82.34
2019-05-25T21:31:42.547Z,82.13
2019-05-25T21:34:13.032Z,82.81
2019-05-25T21:36:43.535Z,83.03
2019-05-25T21:39:14.032Z,83.58
2019-05-25T21:41:44.542Z,83.87
2019-05-25T21:44:15.072Z,83.96
2019-05-25T21:46:45.579Z,84.48
2019-05-25T21:49:16.146Z,84.17
2019-05-25T21:51:46.649Z,84.39
2019-05-25T21:54:17.086Z,84.40
2019-05-25T21:56:47.685Z,84.87
2019-05-25T21:59:18.158Z,84.37
2019-05-25T22:01:48.626Z,84.28
2019-05-25T22:04:19.141Z,84.06
2019-05-25T22:06:49.689Z,84.15
2019-05-25T22:09:20.290Z,84.24
2019-05-25T22:11:50.780Z,83.75
2019-05-25T22:14:21.229Z,84.38
2019-05-25T22:16:51.853Z,84.79
2019-05-25T22:19:22.348Z,84.89
2019-05-25T22:21:52.820Z,85.56
2019-05-25T22:24:23.373Z,85.32
2019-05-25T22:26:54.121Z,85.53
2019-05-25T22:29:24.688Z,85.81
2019-05-25T22:31:55.167Z,85.60
2019-05-25T22:34:25.707Z,86.27
2019-05-25T22:36:56.571Z,86.88
2019-05-25T22:39:27.099Z,86.75
2019-05-25T22:41:57.580Z,86.72
2019-05-25T22:44:28.218Z,86.51
2019-05-25T22:46:59.697Z,86.84
2019-05-25T22:49:30.262Z,86.57
2019-05-25T22:52:00.930Z,87.04
2019-05-25T22:54:31.482Z,86.92
2019-05-25T22:57:01.966Z,87.14
2019-05-25T22:59:32.683Z,87.60
2019-05-25T23:02:03.494Z,87.47
2019-05-25T23:04:33.934Z,87.60
2019-05-25T23:07:05.282Z,87.96
2019-05-25T23:09:36.191Z,88.43
2019-05-25T23:12:06.808Z,88.34
2019-05-25T23:14:37.285Z,88.16
2019-05-25T23:17:07.864Z,88.01
2019-05-25T23:19:38.390Z,88.42
2019-05-25T23:22:09.348Z,88.62
2019-05-25T23:24:41.755Z,88.78
2019-05-25T23:27:15.371Z,89.32
2019-05-25T23:29:44.704Z,89.49
2019-05-25T23:32:15.365Z,89.72
2019-05-25T23:34:45.976Z,89.71
2019-05-25T23:37:16.487Z,89.42
2019-05-25T23:39:47.033Z,89.67
2019-05-25T23:42:17.741Z,89.95
2019-05-25T23:44:48.340Z,91.10
2019-05-25T23:47:18.823Z,91.07
2019-05-25T23:49:49.411Z,90.35
2019-05-25T23:52:19.875Z,90.55
2019-05-25T23:54:50.322Z,90.69
2019-05-25T23:57:21.045Z,90.55
2019-05-25T23:59:51.646Z,91.60
